Terminal Aerodrome Forecast
Issued by NWS Topeka, KS

Home | Current Version | Previous Version | Graphics & Text | Print | Product List | Glossary On
Versions: 1 2 3 4 5 6 7 8 9 10 11 12 13 14
000
FTUS43 KTOP 290219 AAB
TAFTOP
TAF AMD
KTOP 290219Z 2902/2924 04004KT P6SM -TSRA BKN040CB
      TEMPO 2902/2904 VRB18G35KT 3SM TSRA BKN020CB
     FM290400 03003KT P6SM VCSH SCT040 BKN120=

USA.gov is the U.S. government's official web portal to all federal, state and local government web resources and services.